Time;durP1;ratioP1;P1;durP2;ratioP2;P2;SDS_P1;SDS_P2;PMS_P1;PMS_P2;Temp;Humidity;BMP_temperature;BMP_pressure;BME280_temperature;BME280_humidity;BME280_pressure;Samples;Min_cycle;Max_cycle;Signal;HPM_P1;HPM_P2
2022/07/02 00:01:57;;;;;;;58.13;8.02;;;;;;;;;;4981187;28;20037;-70
2022/07/02 00:04:28;;;;;;;36.40;8.23;;;;;;;;;;4982781;28;20451;-71
2022/07/02 00:06:53;;;;;;;65.28;8.23;;;;;;;;;;4981639;28;20042;-70
2022/07/02 00:09:19;;;;;;;33.97;7.78;;;;;;;;;;4981731;28;20053;-70
2022/07/02 00:11:47;;;;;;;31.45;8.75;;;;;;;;;;4982500;28;20045;-70
2022/07/02 00:14:14;;;;;;;32.38;7.25;;;;;;;;;;4947225;28;1045583;-69
2022/07/02 00:16:40;;;;;;;31.10;7.40;;;;;;;;;;4982260;28;20109;-71
2022/07/02 00:19:05;;;;;;;40.95;6.88;;;;;;;;;;4982640;28;20513;-70
2022/07/02 00:21:32;;;;;;;33.92;6.80;;;;;;;;;;4983302;28;20034;-68
2022/07/02 00:23:58;;;;;;;8.70;6.47;;;;;;;;;;4983315;28;20087;-68
2022/07/02 00:26:37;;;;;;;9.73;7.00;;;;;;;;;;4982034;28;20384;-69
2022/07/02 00:29:35;;;;;;;8.10;5.88;;;;;;;;;;4982268;28;20044;-69
2022/07/02 00:32:01;;;;;;;8.25;5.85;;;;;;;;;;4983187;28;20041;-69
2022/07/02 00:34:28;;;;;;;9.07;6.13;;;;;;;;;;4983090;28;20034;-68
2022/07/02 00:36:55;;;;;;;10.80;6.07;;;;;;;;;;4983060;28;20128;-70
2022/07/02 00:39:20;;;;;;;9.18;5.18;;;;;;;;;;4983372;28;20045;-69
2022/07/02 00:41:47;;;;;;;9.93;6.38;;;;;;;;;;4982063;28;20030;-70
2022/07/02 00:44:13;;;;;;;10.02;6.40;;;;;;;;;;4983422;28;20045;-68
2022/07/02 00:46:40;;;;;;;9.25;6.13;;;;;;;;;;4983180;28;20478;-68
2022/07/02 00:49:08;;;;;;;8.77;5.88;;;;;;;;;;4982795;28;20042;-68
2022/07/02 00:51:34;;;;;;;7.75;5.60;;;;;;;;;;4980553;28;20042;-68
2022/07/02 00:53:59;;;;;;;11.02;5.57;;;;;;;;;;4982041;28;20731;-69
2022/07/02 00:56:25;;;;;;;5.13;4.30;;;;;;;;;;4983251;28;20046;-68
2022/07/02 00:58:50;;;;;;;5.28;4.13;;;;;;;;;;4983021;28;20062;-68
2022/07/02 01:01:16;;;;;;;4.40;3.45;;;;;;;;;;4983280;28;20155;-68
2022/07/02 01:03:42;;;;;;;5.82;3.50;;;;;;;;;;4981770;28;20030;-68
2022/07/02 01:06:08;;;;;;;5.75;3.75;;;;;;;;;;4983296;28;20046;-68
2022/07/02 01:11:18;;;;;;;4.53;3.70;;;;;;;;;;4983064;28;20046;-68
2022/07/02 01:13:43;;;;;;;4.10;3.70;;;;;;;;;;4983170;28;20042;-68
2022/07/02 01:16:09;;;;;;;3.70;3.17;;;;;;;;;;4983713;28;20049;-68
2022/07/02 01:18:37;;;;;;;4.40;3.15;;;;;;;;;;4983588;28;20517;-69
2022/07/02 01:21:04;;;;;;;4.07;2.60;;;;;;;;;;4982930;28;20046;-68
2022/07/02 01:23:29;;;;;;;3.38;2.90;;;;;;;;;;4981656;28;20042;-68
2022/07/02 01:25:55;;;;;;;3.72;2.95;;;;;;;;;;4982487;28;20049;-68
2022/07/02 01:28:21;;;;;;;2.80;2.60;;;;;;;;;;4982600;28;20045;-68
2022/07/02 01:30:47;;;;;;;3.33;3.03;;;;;;;;;;4982881;28;20045;-68
2022/07/02 01:33:13;;;;;;;3.28;2.70;;;;;;;;;;4982408;28;20042;-68
2022/07/02 01:35:38;;;;;;;3.67;2.80;;;;;;;;;;4980560;28;20327;-69
2022/07/02 01:38:04;;;;;;;4.45;3.03;;;;;;;;;;4982265;28;20499;-69
2022/07/02 01:40:29;;;;;;;6.63;2.85;;;;;;;;;;4983132;28;20533;-69
2022/07/02 01:42:55;;;;;;;2.95;2.70;;;;;;;;;;4982448;28;20066;-69
2022/07/02 01:45:20;;;;;;;10.02;2.70;;;;;;;;;;4982904;28;20098;-69
2022/07/02 01:47:46;;;;;;;5.03;2.80;;;;;;;;;;4981291;28;20066;-68
2022/07/02 01:50:12;;;;;;;3.00;2.70;;;;;;;;;;4977247;28;20034;-68
2022/07/02 01:52:38;;;;;;;4.47;3.67;;;;;;;;;;4981816;28;20056;-68
2022/07/02 01:55:04;;;;;;;4.45;3.63;;;;;;;;;;4981965;28;20960;-67
2022/07/02 01:57:33;;;;;;;6.85;3.70;;;;;;;;;;4981103;28;20100;-68
2022/07/02 01:59:59;;;;;;;4.10;3.63;;;;;;;;;;4982108;28;20038;-68
2022/07/02 02:02:24;;;;;;;3.50;3.10;;;;;;;;;;4980200;28;20042;-68
2022/07/02 02:04:50;;;;;;;4.55;3.72;;;;;;;;;;4981842;28;20026;-69
2022/07/02 02:07:16;;;;;;;5.45;3.90;;;;;;;;;;4981819;28;20038;-69
2022/07/02 02:09:41;;;;;;;7.32;3.85;;;;;;;;;;4981058;28;20038;-69
2022/07/02 02:12:07;;;;;;;3.50;3.13;;;;;;;;;;4981640;28;20046;-69
2022/07/02 02:14:32;;;;;;;3.20;2.90;;;;;;;;;;4981607;28;20053;-69
2022/07/02 02:16:59;;;;;;;4.05;2.97;;;;;;;;;;4981793;28;20046;-69
2022/07/02 02:19:24;;;;;;;3.05;2.75;;;;;;;;;;4980771;28;20126;-69
2022/07/02 02:21:50;;;;;;;3.95;3.55;;;;;;;;;;4981687;28;20495;-69
2022/07/02 02:24:15;;;;;;;6.05;4.63;;;;;;;;;;4981559;28;20034;-69
2022/07/02 02:26:41;;;;;;;11.10;4.80;;;;;;;;;;4981539;28;20060;-69
2022/07/02 02:29:06;;;;;;;6.43;3.20;;;;;;;;;;4981753;28;20528;-69
2022/07/02 02:31:32;;;;;;;24.30;4.22;;;;;;;;;;4979563;28;20042;-69
2022/07/02 02:33:57;;;;;;;10.27;4.00;;;;;;;;;;4981490;28;20038;-69
2022/07/02 02:36:22;;;;;;;51.25;7.28;;;;;;;;;;4981862;28;20046;-69
2022/07/02 02:38:48;;;;;;;53.33;8.15;;;;;;;;;;4980005;28;20117;-69
2022/07/02 02:41:14;;;;;;;25.08;7.82;;;;;;;;;;4980685;28;20368;-69
2022/07/02 02:43:39;;;;;;;27.67;7.15;;;;;;;;;;4981070;28;20080;-69
2022/07/02 02:46:05;;;;;;;14.68;6.90;;;;;;;;;;4980671;28;20042;-69
2022/07/02 02:48:31;;;;;;;11.20;6.32;;;;;;;;;;4981313;28;20444;-69
2022/07/02 02:50:57;;;;;;;15.40;5.78;;;;;;;;;;4981395;28;20042;-69
2022/07/02 02:53:23;;;;;;;12.80;6.25;;;;;;;;;;4980360;28;20038;-69
2022/07/02 02:55:49;;;;;;;9.80;5.70;;;;;;;;;;4981192;28;20438;-70
2022/07/02 02:58:14;;;;;;;29.70;5.22;;;;;;;;;;4981434;28;21054;-69
2022/07/02 03:00:40;;;;;;;22.63;5.93;;;;;;;;;;4981485;28;20526;-69
2022/07/02 03:03:05;;;;;;;11.07;5.38;;;;;;;;;;4980906;28;20117;-69
2022/07/02 03:05:30;;;;;;;25.10;5.50;;;;;;;;;;4981015;28;20038;-69
2022/07/02 03:07:56;;;;;;;26.70;5.85;;;;;;;;;;4981439;28;20499;-69
2022/07/02 03:10:21;;;;;;;17.90;5.10;;;;;;;;;;4981481;28;20046;-69
2022/07/02 03:12:46;;;;;;;10.32;5.68;;;;;;;;;;4980970;28;20081;-69
2022/07/02 03:15:13;;;;;;;21.55;6.03;;;;;;;;;;4980404;28;20050;-69
2022/07/02 03:17:38;;;;;;;103.97;7.78;;;;;;;;;;4983115;28;20499;-69
2022/07/02 03:20:04;;;;;;;86.18;7.90;;;;;;;;;;4983344;28;20042;-69
2022/07/02 03:22:30;;;;;;;31.92;7.25;;;;;;;;;;4984543;28;20053;-69
2022/07/02 03:24:55;;;;;;;52.05;8.07;;;;;;;;;;4984504;28;20479;-70
2022/07/02 03:27:21;;;;;;;42.50;7.38;;;;;;;;;;4984008;28;20062;-69
2022/07/02 03:29:46;;;;;;;47.13;7.97;;;;;;;;;;4984363;28;20089;-69
2022/07/02 03:32:12;;;;;;;69.80;8.10;;;;;;;;;;4984421;28;20041;-69
2022/07/02 03:34:37;;;;;;;75.82;8.88;;;;;;;;;;4984051;28;20498;-70
2022/07/02 03:37:03;;;;;;;94.68;8.18;;;;;;;;;;4983762;28;20056;-70
2022/07/02 03:39:29;;;;;;;101.15;8.77;;;;;;;;;;4982884;28;20048;-69
2022/07/02 03:41:54;;;;;;;93.10;8.93;;;;;;;;;;4984419;28;20391;-69
2022/07/02 03:44:19;;;;;;;104.85;8.65;;;;;;;;;;4984408;28;20034;-69
2022/07/02 03:46:45;;;;;;;83.43;8.85;;;;;;;;;;4984499;28;20050;-69
2022/07/02 03:49:10;;;;;;;55.22;7.63;;;;;;;;;;4981195;28;20041;-69
2022/07/02 03:51:36;;;;;;;85.90;7.78;;;;;;;;;;4983125;28;20042;-69
2022/07/02 03:54:02;;;;;;;34.92;6.05;;;;;;;;;;4983751;28;20038;-69
2022/07/02 03:56:28;;;;;;;70.38;6.95;;;;;;;;;;4984159;28;20042;-69
2022/07/02 03:58:54;;;;;;;95.90;7.10;;;;;;;;;;4981399;28;20034;-69
2022/07/02 04:01:19;;;;;;;50.10;7.53;;;;;;;;;;4983124;28;20057;-69
2022/07/02 04:03:44;;;;;;;93.00;7.25;;;;;;;;;;4985156;28;20030;-71
2022/07/02 04:06:10;;;;;;;96.30;6.63;;;;;;;;;;4984353;28;20403;-69
2022/07/02 04:08:35;;;;;;;50.67;5.75;;;;;;;;;;4984291;28;20072;-69
2022/07/02 04:11:01;;;;;;;57.90;6.18;;;;;;;;;;4983461;28;20093;-69
2022/07/02 04:13:27;;;;;;;133.85;9.55;;;;;;;;;;4982784;28;20587;-69
2022/07/02 04:15:52;;;;;;;73.78;8.43;;;;;;;;;;4984495;28;20125;-69
2022/07/02 04:18:18;;;;;;;94.18;7.38;;;;;;;;;;4984703;28;20089;-68
2022/07/02 04:20:44;;;;;;;116.05;8.65;;;;;;;;;;4983681;28;20069;-68
2022/07/02 04:23:09;;;;;;;220.68;9.40;;;;;;;;;;4982201;28;20147;-68
2022/07/02 04:25:35;;;;;;;82.90;6.47;;;;;;;;;;4983904;28;20113;-69
2022/07/02 04:28:00;;;;;;;184.80;8.25;;;;;;;;;;4981651;28;20057;-69
2022/07/02 04:30:26;;;;;;;35.20;5.82;;;;;;;;;;4982369;28;20569;-69
2022/07/02 04:32:51;;;;;;;148.82;8.45;;;;;;;;;;4983292;28;20552;-69
2022/07/02 04:35:17;;;;;;;137.68;9.70;;;;;;;;;;4983515;28;20050;-68
2022/07/02 04:37:42;;;;;;;82.25;5.53;;;;;;;;;;4983107;28;20176;-69
2022/07/02 04:40:08;;;;;;;232.88;9.13;;;;;;;;;;4983537;28;20050;-68
2022/07/02 04:42:33;;;;;;;113.15;6.15;;;;;;;;;;4982282;28;20064;-68
2022/07/02 04:44:59;;;;;;;201.35;8.00;;;;;;;;;;4983801;28;20034;-69
2022/07/02 04:47:24;;;;;;;326.83;11.98;;;;;;;;;;4983646;28;20562;-68
2022/07/02 04:49:50;;;;;;;270.58;7.85;;;;;;;;;;4983419;28;20046;-68
2022/07/02 04:52:15;;;;;;;222.80;7.63;;;;;;;;;;4982137;28;20046;-68
2022/07/02 04:54:41;;;;;;;126.82;4.97;;;;;;;;;;4981738;28;20125;-68
2022/07/02 04:57:06;;;;;;;102.53;5.35;;;;;;;;;;4983234;28;20056;-68
2022/07/02 04:59:31;;;;;;;186.25;5.70;;;;;;;;;;4983241;28;20113;-68
2022/07/02 05:01:57;;;;;;;177.40;5.13;;;;;;;;;;4982924;28;20050;-68
2022/07/02 05:04:22;;;;;;;23.02;2.70;;;;;;;;;;4982081;28;20089;-68
2022/07/02 05:06:48;;;;;;;61.20;2.85;;;;;;;;;;4982942;28;20742;-68
2022/07/02 05:09:14;;;;;;;26.63;2.22;;;;;;;;;;4983463;28;20770;-68
2022/07/02 05:11:39;;;;;;;94.88;3.55;;;;;;;;;;4983902;28;20030;-69
2022/07/02 05:14:04;;;;;;;16.30;2.10;;;;;;;;;;4984031;28;20454;-69
2022/07/02 05:16:30;;;;;;;50.58;2.92;;;;;;;;;;4981637;28;20042;-69
2022/07/02 05:18:55;;;;;;;51.05;2.38;;;;;;;;;;4980397;28;20451;-69
2022/07/02 05:21:21;;;;;;;68.90;3.30;;;;;;;;;;4980685;28;20046;-69
2022/07/02 05:23:46;;;;;;;46.60;2.70;;;;;;;;;;4982373;28;20042;-69
2022/07/02 05:26:12;;;;;;;52.72;3.13;;;;;;;;;;4981911;28;20038;-68
2022/07/02 05:28:37;;;;;;;20.98;2.42;;;;;;;;;;4982775;28;20089;-69
2022/07/02 05:31:02;;;;;;;13.80;2.17;;;;;;;;;;4982608;28;20524;-69
2022/07/02 05:33:28;;;;;;;15.40;2.55;;;;;;;;;;4982467;28;20052;-69
2022/07/02 05:35:54;;;;;;;9.82;1.50;;;;;;;;;;4982114;28;20843;-69
2022/07/02 05:38:19;;;;;;;9.35;1.67;;;;;;;;;;4981254;28;20069;-69
2022/07/02 05:40:46;;;;;;;27.50;1.90;;;;;;;;;;4981997;28;20057;-69
2022/07/02 05:43:11;;;;;;;3.30;1.65;;;;;;;;;;4981698;28;20149;-68
2022/07/02 05:45:37;;;;;;;5.85;2.15;;;;;;;;;;4980291;28;20034;-68
2022/07/02 05:48:02;;;;;;;6.57;1.60;;;;;;;;;;4980391;28;20380;-69
2022/07/02 05:50:28;;;;;;;2.30;1.60;;;;;;;;;;4981877;28;20033;-69
2022/07/02 05:52:53;;;;;;;2.35;1.80;;;;;;;;;;4981450;28;20188;-69
2022/07/02 05:55:19;;;;;;;2.10;1.58;;;;;;;;;;4981614;28;20038;-69
2022/07/02 05:57:44;;;;;;;1.90;1.80;;;;;;;;;;4981552;28;20042;-69
2022/07/02 06:00:11;;;;;;;3.28;2.10;;;;;;;;;;4981127;28;20042;-69
2022/07/02 06:02:37;;;;;;;4.25;2.03;;;;;;;;;;4981475;28;20487;-69
2022/07/02 06:07:47;;;;;;;5.97;2.20;;;;;;;;;;4980064;28;20483;-69
2022/07/02 06:10:18;;;;;;;2.05;1.85;;;;;;;;;;4979738;28;20053;-69
2022/07/02 06:12:48;;;;;;;11.73;2.10;;;;;;;;;;4981134;28;20406;-69
2022/07/02 06:15:15;;;;;;;33.67;3.35;;;;;;;;;;4980635;28;20474;-68
2022/07/02 06:17:40;;;;;;;7.72;2.40;;;;;;;;;;4980448;28;20502;-69
2022/07/02 06:20:06;;;;;;;16.00;2.22;;;;;;;;;;4979354;28;20146;-69
2022/07/02 06:22:31;;;;;;;44.70;3.08;;;;;;;;;;4979526;28;20541;-68
2022/07/02 06:24:57;;;;;;;4.18;1.80;;;;;;;;;;4979299;28;20038;-69
2022/07/02 06:27:22;;;;;;;8.75;1.90;;;;;;;;;;4978075;28;20038;-69
2022/07/02 06:29:48;;;;;;;21.08;2.30;;;;;;;;;;4977494;28;20038;-68
2022/07/02 06:32:16;;;;;;;4.25;1.88;;;;;;;;;;4979308;28;20041;-68
2022/07/02 06:34:42;;;;;;;2.38;1.63;;;;;;;;;;4980600;28;20039;-68
2022/07/02 06:37:07;;;;;;;8.05;1.60;;;;;;;;;;4979683;28;20030;-69
2022/07/02 06:39:33;;;;;;;2.25;1.50;;;;;;;;;;4980497;28;20045;-68
2022/07/02 06:44:42;;;;;;;1.60;1.50;;;;;;;;;;4980552;28;20026;-68
2022/07/02 06:47:08;;;;;;;1.70;1.58;;;;;;;;;;4980460;28;20850;-67
2022/07/02 06:49:33;;;;;;;1.83;1.73;;;;;;;;;;4980247;28;20094;-68
2022/07/02 06:51:59;;;;;;;2.08;1.98;;;;;;;;;;4981362;28;20038;-68
2022/07/02 06:54:24;;;;;;;1.70;1.60;;;;;;;;;;4983118;28;20403;-68
2022/07/02 06:56:49;;;;;;;2.00;1.90;;;;;;;;;;4984436;28;20042;-68
2022/07/02 06:59:15;;;;;;;6.25;1.90;;;;;;;;;;4983701;28;20140;-67
2022/07/02 07:01:40;;;;;;;2.20;2.00;;;;;;;;;;4984066;28;20041;-68
2022/07/02 07:04:06;;;;;;;2.60;2.00;;;;;;;;;;4984396;28;20041;-67
2022/07/02 07:06:34;;;;;;;1.70;1.58;;;;;;;;;;4980173;28;20479;-67
2022/07/02 07:09:00;;;;;;;2.10;1.85;;;;;;;;;;4984178;28;20306;-67
2022/07/02 07:11:25;;;;;;;2.50;2.10;;;;;;;;;;4984013;28;20042;-67
2022/07/02 07:13:51;;;;;;;2.00;1.90;;;;;;;;;;4982165;28;20518;-68
2022/07/02 07:16:16;;;;;;;2.03;1.77;;;;;;;;;;4975795;28;20104;-67
2022/07/02 07:19:04;;;;;;;3.78;1.52;;;;;;;;;;4983959;28;20601;-68
2022/07/02 07:21:27;;;;;;;2.20;2.10;;;;;;;;;;4983204;28;20046;-68
2022/07/02 07:23:53;;;;;;;2.00;1.90;;;;;;;;;;4984481;28;20081;-68
2022/07/02 07:26:18;;;;;;;2.65;2.42;;;;;;;;;;4983231;28;20818;-68
2022/07/02 07:28:44;;;;;;;2.60;2.40;;;;;;;;;;4983338;28;20034;-69
2022/07/02 07:31:10;;;;;;;2.30;2.20;;;;;;;;;;4983856;28;20205;-68
2022/07/02 07:33:35;;;;;;;1.92;1.58;;;;;;;;;;4983933;28;20067;-69
2022/07/02 07:36:00;;;;;;;2.00;1.80;;;;;;;;;;4983132;28;20038;-69
2022/07/02 07:38:26;;;;;;;1.65;1.55;;;;;;;;;;4982990;28;20521;-69
2022/07/02 07:40:51;;;;;;;2.88;1.88;;;;;;;;;;4984908;28;20042;-68
2022/07/02 07:43:17;;;;;;;2.22;2.03;;;;;;;;;;4984769;28;20042;-69
2022/07/02 07:45:42;;;;;;;2.00;1.90;;;;;;;;;;4984482;28;20069;-68
2022/07/02 07:48:07;;;;;;;2.13;2.03;;;;;;;;;;4984513;28;20042;-69
2022/07/02 07:50:33;;;;;;;2.53;2.33;;;;;;;;;;4984620;28;20656;-68
2022/07/02 07:52:58;;;;;;;2.35;2.15;;;;;;;;;;4983721;28;20034;-69
2022/07/02 07:55:24;;;;;;;2.25;2.13;;;;;;;;;;4984854;28;20034;-69
2022/07/02 07:57:49;;;;;;;2.92;2.40;;;;;;;;;;4984083;28;20045;-69
2022/07/02 08:00:15;;;;;;;2.95;2.10;;;;;;;;;;4981578;28;20043;-69
2022/07/02 08:02:40;;;;;;;2.20;2.10;;;;;;;;;;4982947;28;20054;-69
2022/07/02 08:05:06;;;;;;;2.08;1.98;;;;;;;;;;4982697;28;20045;-70
2022/07/02 08:07:36;;;;;;;2.83;2.63;;;;;;;;;;4981627;28;20065;-69
2022/07/02 08:10:02;;;;;;;2.38;2.17;;;;;;;;;;4983399;28;20038;-69
2022/07/02 08:12:28;;;;;;;2.95;2.42;;;;;;;;;;4979383;28;20411;-69
2022/07/02 08:14:53;;;;;;;2.83;2.58;;;;;;;;;;4981506;28;20145;-69
2022/07/02 08:17:18;;;;;;;2.65;2.45;;;;;;;;;;4983752;28;20038;-69
2022/07/02 08:19:44;;;;;;;2.50;2.30;;;;;;;;;;4983543;28;20130;-69
2022/07/02 08:22:10;;;;;;;2.45;2.25;;;;;;;;;;4977011;28;20030;-70
2022/07/02 08:24:35;;;;;;;2.10;2.00;;;;;;;;;;4980543;28;20538;-70
2022/07/02 08:27:00;;;;;;;2.25;1.80;;;;;;;;;;4982955;28;20049;-70
2022/07/02 08:29:26;;;;;;;1.75;1.65;;;;;;;;;;4983101;28;20035;-70
2022/07/02 08:31:52;;;;;;;1.65;1.55;;;;;;;;;;4982654;28;20040;-70
2022/07/02 08:34:17;;;;;;;1.88;1.77;;;;;;;;;;4980878;28;20034;-69
2022/07/02 08:36:43;;;;;;;4.07;1.50;;;;;;;;;;4982299;28;20459;-70
2022/07/02 08:39:08;;;;;;;7.50;1.85;;;;;;;;;;4982570;28;20091;-69
2022/07/02 08:41:34;;;;;;;2.58;1.25;;;;;;;;;;4982190;28;20048;-68
2022/07/02 08:44:05;;;;;;;1.45;1.20;;;;;;;;;;4981207;28;20431;-70
2022/07/02 08:46:31;;;;;;;1.20;1.10;;;;;;;;;;4981943;28;20031;-70
2022/07/02 08:48:59;;;;;;;4.22;1.50;;;;;;;;;;4982636;28;21022;-71
2022/07/02 08:51:25;;;;;;;1.48;1.38;;;;;;;;;;4964227;28;20519;-70
2022/07/02 08:53:50;;;;;;;1.13;1.10;;;;;;;;;;4979874;28;20053;-72
2022/07/02 08:56:17;;;;;;;2.15;1.17;;;;;;;;;;4981510;28;20084;-70
2022/07/02 08:58:44;;;;;;;1.27;1.17;;;;;;;;;;4982736;28;20062;-69
2022/07/02 09:01:10;;;;;;;1.33;1.23;;;;;;;;;;4977328;28;20042;-71
2022/07/02 09:03:38;;;;;;;1.63;1.40;;;;;;;;;;4981581;28;20483;-69
2022/07/02 09:06:05;;;;;;;1.45;1.35;;;;;;;;;;4980862;28;20487;-71
2022/07/02 09:08:31;;;;;;;1.27;0.90;;;;;;;;;;4981201;28;20941;-69
2022/07/02 09:10:57;;;;;;;1.02;1.00;;;;;;;;;;4980415;28;20053;-70
2022/07/02 09:13:24;;;;;;;1.05;0.90;;;;;;;;;;4981351;28;20042;-70
2022/07/02 09:15:51;;;;;;;1.30;0.90;;;;;;;;;;4980687;28;20489;-70
2022/07/02 09:18:18;;;;;;;3.13;1.20;;;;;;;;;;4980945;28;20034;-68
2022/07/02 09:20:44;;;;;;;1.00;0.90;;;;;;;;;;4996575;28;20038;-69
2022/07/02 09:23:20;;;;;;;1.05;0.95;;;;;;;;;;4981127;28;20030;-69
2022/07/02 09:25:47;;;;;;;1.02;0.95;;;;;;;;;;4981437;28;20042;-70
2022/07/02 09:28:14;;;;;;;2.10;0.77;;;;;;;;;;4980591;28;20033;-71
2022/07/02 09:30:40;;;;;;;3.00;0.73;;;;;;;;;;4981547;28;20454;-69
2022/07/02 09:33:28;;;;;;;1.23;0.60;;;;;;;;;;4981295;28;20061;-70
2022/07/02 09:35:59;;;;;;;0.95;0.70;;;;;;;;;;4979947;28;20128;-70
2022/07/02 09:38:24;;;;;;;0.68;0.50;;;;;;;;;;4980554;28;20052;-70
2022/07/02 09:40:56;;;;;;;1.50;0.70;;;;;;;;;;4979752;28;20038;-72
2022/07/02 09:43:29;;;;;;;0.70;0.70;;;;;;;;;;4979660;28;20124;-72
2022/07/02 09:45:56;;;;;;;0.63;0.60;;;;;;;;;;4981433;28;20045;-70
2022/07/02 09:48:22;;;;;;;0.82;0.60;;;;;;;;;;4979950;28;20711;-72
2022/07/02 09:50:47;;;;;;;0.50;0.50;;;;;;;;;;4979404;28;20089;-73
2022/07/02 09:53:12;;;;;;;0.63;0.63;;;;;;;;;;4979794;28;20065;-71
2022/07/02 09:55:38;;;;;;;0.70;0.70;;;;;;;;;;4981528;28;20049;-71
2022/07/02 09:58:05;;;;;;;1.70;0.70;;;;;;;;;;4980698;28;20042;-71
2022/07/02 10:00:34;;;;;;;0.85;0.80;;;;;;;;;;4979870;28;20948;-72
2022/07/02 10:03:02;;;;;;;1.85;0.73;;;;;;;;;;4980515;28;20046;-70
2022/07/02 10:05:33;;;;;;;0.55;0.50;;;;;;;;;;4981121;28;20471;-71
2022/07/02 10:08:00;;;;;;;1.40;1.30;;;;;;;;;;4981453;28;20052;-70
2022/07/02 10:10:38;;;;;;;0.95;0.60;;;;;;;;;;4980599;28;20458;-68
2022/07/02 10:13:08;;;;;;;2.95;0.95;;;;;;;;;;4980430;28;20042;-69
2022/07/02 10:15:42;;;;;;;3.03;0.80;;;;;;;;;;4981982;28;20042;-69
2022/07/02 10:18:08;;;;;;;3.03;0.80;;;;;;;;;;4981545;28;20034;-71
2022/07/02 10:20:35;;;;;;;0.65;0.65;;;;;;;;;;4981577;28;20073;-72
2022/07/02 10:23:05;;;;;;;1.27;0.55;;;;;;;;;;4979002;28;20052;-73
2022/07/02 10:25:32;;;;;;;0.70;0.70;;;;;;;;;;4981248;28;21002;-73
2022/07/02 10:27:57;;;;;;;1.15;0.95;;;;;;;;;;4985597;28;20042;-71
2022/07/02 10:33:33;;;;;;;1.17;0.95;;;;;;;;;;4985404;28;20042;-70
2022/07/02 10:36:00;;;;;;;0.82;0.80;;;;;;;;;;4985092;28;20986;-71
2022/07/02 10:38:31;;;;;;;1.02;0.90;;;;;;;;;;4985062;28;20049;-70
2022/07/02 10:40:56;;;;;;;1.50;0.83;;;;;;;;;;4980453;28;20040;-70
2022/07/02 10:43:22;;;;;;;1.85;0.98;;;;;;;;;;4984018;28;20034;-71
2022/07/02 10:45:48;;;;;;;1.48;0.93;;;;;;;;;;4982457;28;20089;-72
2022/07/02 10:48:14;;;;;;;2.08;1.02;;;;;;;;;;4984462;28;20395;-71
2022/07/02 10:50:43;;;;;;;0.98;0.80;;;;;;;;;;4984042;28;20042;-70
2022/07/02 10:53:19;;;;;;;0.95;0.82;;;;;;;;;;4984616;28;20499;-70
2022/07/02 10:55:50;;;;;;;6.50;0.80;;;;;;;;;;4983482;28;20125;-73
2022/07/02 10:58:20;;;;;;;;;;;;;;;;;;4985088;28;20042;-71
2022/07/02 11:00:46;;;;;;;1.60;0.70;;;;;;;;;;4999629;28;19913;-71
2022/07/02 11:03:16;;;;;;;1.20;0.70;;;;;;;;;;4982464;28;20049;-70
2022/07/02 11:05:56;;;;;;;2.05;0.60;;;;;;;;;;4983163;28;20042;-71
2022/07/02 11:08:48;;;;;;;1.17;0.70;;;;;;;;;;4981840;28;20046;-71
2022/07/02 11:11:41;;;;;;;3.30;0.60;;;;;;;;;;4982451;28;20030;-73
2022/07/02 11:14:18;;;;;;;0.60;0.60;;;;;;;;;;4973618;28;20444;-72
2022/07/02 11:16:50;;;;;;;1.45;0.50;;;;;;;;;;4984880;28;20407;-71
2022/07/02 11:19:26;;;;;;;3.92;0.60;;;;;;;;;;4983301;28;20042;-71
2022/07/02 11:21:54;;;;;;;0.70;0.50;;;;;;;;;;4982894;28;20038;-72
2022/07/02 11:24:22;;;;;;;4.70;0.63;;;;;;;;;;4982336;28;20030;-71
2022/07/02 11:26:48;;;;;;;2.22;0.60;;;;;;;;;;4983807;28;20097;-72
2022/07/02 11:29:14;;;;;;;0.55;0.47;;;;;;;;;;4982880;28;20062;-72
2022/07/02 11:31:42;;;;;;;0.50;0.50;;;;;;;;;;4984150;28;20033;-72
2022/07/02 11:34:08;;;;;;;0.88;0.60;;;;;;;;;;4983580;28;20042;-70
2022/07/02 11:36:38;;;;;;;1.70;0.50;;;;;;;;;;4983374;28;20050;-71
2022/07/02 11:39:15;;;;;;;0.50;0.50;;;;;;;;;;4983540;28;21069;-71
2022/07/02 11:41:41;;;;;;;0.40;0.40;;;;;;;;;;4983897;28;20041;-71
2022/07/02 11:44:28;;;;;;;2.53;0.63;;;;;;;;;;4983306;28;20427;-70
2022/07/02 11:46:59;;;;;;;1.77;0.60;;;;;;;;;;4981521;28;20038;-70
2022/07/02 11:49:31;;;;;;;0.82;0.55;;;;;;;;;;4983559;28;20038;-70
2022/07/02 11:51:57;;;;;;;2.20;0.93;;;;;;;;;;4981800;28;20042;-70
2022/07/02 11:54:23;;;;;;;0.60;0.50;;;;;;;;;;4984056;28;20402;-69
2022/07/02 11:56:51;;;;;;;3.15;0.60;;;;;;;;;;4984388;28;20038;-70
2022/07/02 11:59:19;;;;;;;0.95;0.57;;;;;;;;;;4983406;28;20360;-69
2022/07/02 12:01:47;;;;;;;2.47;0.55;;;;;;;;;;4983023;28;20038;-69
2022/07/02 12:04:16;;;;;;;3.47;0.80;;;;;;;;;;4984180;28;20030;-69
2022/07/02 12:06:44;;;;;;;0.75;0.68;;;;;;;;;;4984415;28;20096;-70
2022/07/02 12:09:11;;;;;;;1.17;0.60;;;;;;;;;;4982563;28;20042;-69
2022/07/02 12:11:42;;;;;;;1.48;0.55;;;;;;;;;;4983616;28;20034;-70
2022/07/02 12:14:09;;;;;;;0.40;0.40;;;;;;;;;;4983188;28;20038;-69
2022/07/02 12:16:36;;;;;;;0.70;0.65;;;;;;;;;;4984572;28;20042;-70
2022/07/02 12:19:04;;;;;;;0.47;0.47;;;;;;;;;;4983943;28;20038;-70
2022/07/02 12:21:34;;;;;;;0.98;0.63;;;;;;;;;;4983416;28;20034;-70
2022/07/02 12:24:00;;;;;;;0.60;0.60;;;;;;;;;;4983919;28;20042;-69
2022/07/02 12:26:27;;;;;;;3.03;0.73;;;;;;;;;;4983565;28;20101;-70
2022/07/02 12:31:54;;;;;;;2.92;0.73;;;;;;;;;;4981775;28;20510;-70
2022/07/02 12:34:21;;;;;;;0.70;0.70;;;;;;;;;;4983603;28;20046;-70
2022/07/02 12:36:55;;;;;;;0.52;0.45;;;;;;;;;;4983590;28;20046;-69
2022/07/02 12:39:37;;;;;;;1.73;0.73;;;;;;;;;;4983642;28;20069;-70
2022/07/02 12:42:20;;;;;;;9.95;1.10;;;;;;;;;;4981170;28;20105;-69
2022/07/02 12:44:53;;;;;;;1.13;0.52;;;;;;;;;;4983127;28;20034;-70
2022/07/02 12:47:36;;;;;;;1.00;0.40;;;;;;;;;;4983704;28;20034;-71
2022/07/02 12:50:03;;;;;;;0.95;0.80;;;;;;;;;;4989536;28;20475;-70
2022/07/02 12:52:30;;;;;;;0.70;0.70;;;;;;;;;;4981981;28;20589;-71
2022/07/02 12:54:57;;;;;;;0.45;0.45;;;;;;;;;;4982429;28;20065;-70
2022/07/02 12:57:23;;;;;;;3.78;0.70;;;;;;;;;;4983346;28;20038;-70
2022/07/02 12:59:52;;;;;;;0.95;0.73;;;;;;;;;;4983067;28;20125;-70
2022/07/02 13:02:25;;;;;;;2.75;0.73;;;;;;;;;;4983281;28;20101;-70
2022/07/02 13:04:50;;;;;;;0.57;0.55;;;;;;;;;;4982788;28;20046;-70
2022/07/02 13:07:16;;;;;;;0.50;0.50;;;;;;;;;;4983737;28;20038;-70
2022/07/02 13:09:43;;;;;;;0.90;0.50;;;;;;;;;;4983573;28;20042;-70
2022/07/02 13:12:10;;;;;;;0.40;0.40;;;;;;;;;;4982566;28;20034;-70
2022/07/02 13:14:37;;;;;;;0.82;0.60;;;;;;;;;;4982545;28;20399;-70
2022/07/02 13:17:03;;;;;;;1.38;0.60;;;;;;;;;;4982940;28;20065;-70
2022/07/02 13:19:28;;;;;;;1.23;0.82;;;;;;;;;;4981646;28;20408;-71
2022/07/02 13:21:54;;;;;;;0.70;0.60;;;;;;;;;;4982299;28;20034;-71
2022/07/02 13:24:20;;;;;;;0.60;0.60;;;;;;;;;;4982562;28;20391;-70
2022/07/02 13:26:45;;;;;;;1.98;0.70;;;;;;;;;;4979978;28;20042;-70
2022/07/02 13:29:10;;;;;;;0.40;0.40;;;;;;;;;;4980815;28;20125;-70
2022/07/02 13:31:36;;;;;;;2.33;0.60;;;;;;;;;;4982692;28;20041;-70
2022/07/02 13:34:01;;;;;;;0.82;0.68;;;;;;;;;;4982707;28;20153;-70
2022/07/02 13:36:27;;;;;;;1.50;0.60;;;;;;;;;;4981517;28;20034;-69
2022/07/02 13:38:52;;;;;;;2.50;0.90;;;;;;;;;;4982585;28;20387;-70
2022/07/02 13:41:17;;;;;;;2.53;0.50;;;;;;;;;;4980767;28;20038;-69
2022/07/02 13:43:43;;;;;;;1.30;0.50;;;;;;;;;;4981544;28;20144;-70
2022/07/02 13:46:08;;;;;;;1.50;0.57;;;;;;;;;;4982327;28;20073;-70
2022/07/02 13:48:34;;;;;;;0.80;0.60;;;;;;;;;;4981090;28;20049;-70
2022/07/02 13:50:59;;;;;;;2.60;0.57;;;;;;;;;;4981743;28;20056;-70
2022/07/02 13:53:24;;;;;;;1.40;0.70;;;;;;;;;;4981631;28;20073;-69
2022/07/02 13:55:50;;;;;;;0.60;0.60;;;;;;;;;;4981979;28;20042;-71
2022/07/02 13:58:16;;;;;;;1.27;0.57;;;;;;;;;;4981623;28;20069;-70
2022/07/02 14:00:41;;;;;;;0.60;0.60;;;;;;;;;;4981029;28;20470;-70
2022/07/02 14:03:07;;;;;;;2.67;0.60;;;;;;;;;;4981670;28;20048;-71
2022/07/02 14:05:32;;;;;;;0.57;0.57;;;;;;;;;;4981503;28;20121;-71
2022/07/02 14:07:58;;;;;;;5.63;0.68;;;;;;;;;;4981607;28;20211;-71
2022/07/02 14:10:23;;;;;;;1.90;0.50;;;;;;;;;;4979003;28;20038;-72
2022/07/02 14:12:49;;;;;;;0.63;0.60;;;;;;;;;;4980970;28;20693;-70
2022/07/02 14:15:14;;;;;;;3.17;0.60;;;;;;;;;;4981752;28;20114;-71
2022/07/02 14:17:40;;;;;;;0.50;0.50;;;;;;;;;;4980319;28;20038;-71
2022/07/02 14:20:06;;;;;;;0.88;0.63;;;;;;;;;;4979776;28;20050;-71
2022/07/02 14:22:31;;;;;;;4.82;0.80;;;;;;;;;;4978913;28;20042;-69
2022/07/02 14:24:59;;;;;;;1.95;0.60;;;;;;;;;;4981479;28;20061;-71
2022/07/02 14:27:25;;;;;;;0.93;0.60;;;;;;;;;;4981693;28;20048;-70
2022/07/02 14:29:51;;;;;;;1.05;0.80;;;;;;;;;;4981913;28;20038;-70
2022/07/02 14:32:16;;;;;;;2.50;0.80;;;;;;;;;;4980528;28;20042;-70
2022/07/02 14:34:41;;;;;;;2.65;0.73;;;;;;;;;;4981362;28;20050;-70
2022/07/02 14:37:07;;;;;;;2.58;0.50;;;;;;;;;;4981550;28;20590;-69
2022/07/02 14:39:33;;;;;;;0.82;0.60;;;;;;;;;;4982448;28;20038;-70
2022/07/02 14:41:59;;;;;;;1.75;0.50;;;;;;;;;;4981430;28;20042;-69
2022/07/02 14:44:25;;;;;;;0.47;0.45;;;;;;;;;;4978947;28;20038;-70
2022/07/02 14:46:50;;;;;;;1.85;0.70;;;;;;;;;;4980779;28;20077;-70
2022/07/02 14:49:16;;;;;;;0.70;0.60;;;;;;;;;;4979714;28;20034;-70
2022/07/02 14:51:42;;;;;;;0.43;0.43;;;;;;;;;;4968198;28;20038;-69